Terminal Aerodrome Forecast
Issued by NWS Missoula, MT

Home | Current Version | Previous Version | Text Only | Print | Product List | Glossary On
Versions: 1 2 3 4 5 6 7 8 9 10 11 12 13 14 15 16 17 18 19
000
FTUS45 KMSO 270313 AAC
TAFMSO
TAF AMD
KMSO 270313Z 2703/2724 31010KT P6SM VCTS BKN080CB BKN100
     FM270345 18015G25KT P6SM -TSRA BKN080CB
     FM270415 VRB06KT P6SM -SHRA BKN080 OVC150
     FM270600 VRB06KT P6SM BKN050 BKN080
     FM272000 30008KT P6SM VCSH BKN060=

USA.gov is the U.S. government's official web portal to all federal, state and local government web resources and services.